Time;durP1;ratioP1;P1;durP2;ratioP2;P2;SDS_P1;SDS_P2;PMS_P1;PMS_P2;Temp;Humidity;BMP_temperature;BMP_pressure;BME280_temperature;BME280_humidity;BME280_pressure;Samples;Min_cycle;Max_cycle;Signal;HPM_P1;HPM_P2
2022/08/13 00:02:17;;;;;;;4.13;3.72;;;12.30;99.90;;;;;;4823545;29;20051;-49
2022/08/13 00:04:56;;;;;;;7.35;4.15;;;12.30;99.90;;;;;;4823861;29;20094;-51
2022/08/13 00:07:22;;;;;;;5.45;4.03;;;12.20;99.90;;;;;;4823685;29;20049;-51
2022/08/13 00:09:49;;;;;;;6.25;3.83;;;12.20;99.90;;;;;;4823437;29;20080;-52
2022/08/13 00:15:15;;;;;;;5.07;3.72;;;12.10;99.90;;;;;;4823911;29;20183;-54
2022/08/13 00:17:44;;;;;;;3.63;3.33;;;12.10;99.90;;;;;;4823402;29;20034;-51
2022/08/13 00:20:11;;;;;;;10.27;3.55;;;12.00;99.90;;;;;;4823553;29;20111;-53
2022/08/13 00:22:37;;;;;;;4.25;3.85;;;12.00;99.90;;;;;;4823754;29;20034;-51
2022/08/13 00:25:06;;;;;;;4.78;3.78;;;11.90;99.90;;;;;;4823121;29;20030;-50
2022/08/13 00:27:32;;;;;;;6.43;3.90;;;12.00;99.90;;;;;;4823497;29;20042;-50
2022/08/13 00:29:58;;;;;;;7.53;4.10;;;12.00;99.90;;;;;;4823366;29;20037;-52
2022/08/13 00:32:32;;;;;;;7.70;3.67;;;11.90;99.90;;;;;;4823393;29;20030;-50
2022/08/13 00:34:59;;;;;;;5.60;3.70;;;12.00;99.90;;;;;;4823383;29;20058;-52
2022/08/13 00:37:26;;;;;;;3.70;3.22;;;11.90;99.90;;;;;;4823328;29;20130;-50
2022/08/13 00:39:53;;;;;;;3.83;3.42;;;11.90;99.90;;;;;;4823301;29;20046;-50
2022/08/13 00:42:21;;;;;;;4.03;3.53;;;11.80;99.90;;;;;;4823296;29;20022;-51
2022/08/13 00:44:47;;;;;;;4.22;3.40;;;11.80;99.90;;;;;;4823256;29;20034;-50
2022/08/13 00:49:58;;;;;;;8.73;3.85;;;11.80;99.90;;;;;;4823051;29;20040;-52
2022/08/13 00:52:30;;;;;;;3.97;3.60;;;11.80;99.90;;;;;;4823283;29;20023;-50
2022/08/13 00:55:01;;;;;;;11.45;4.35;;;11.70;99.90;;;;;;4823069;29;20642;-51
2022/08/13 00:57:30;;;;;;;4.32;3.85;;;11.70;99.90;;;;;;4823018;29;20589;-55
2022/08/13 00:59:58;;;;;;;8.98;3.95;;;11.60;99.90;;;;;;4823171;29;20030;-53
2022/08/13 01:02:25;;;;;;;6.20;3.70;;;11.60;99.90;;;;;;4823014;29;20042;-50
2022/08/13 01:04:50;;;;;;;8.82;3.83;;;11.60;99.90;;;;;;4823000;29;20038;-53
2022/08/13 01:07:19;;;;;;;7.40;3.30;;;11.60;99.90;;;;;;4822857;29;20072;-51
2022/08/13 01:09:46;;;;;;;5.45;4.00;;;11.60;99.90;;;;;;4822742;29;20027;-52
2022/08/13 01:12:13;;;;;;;5.43;4.20;;;11.60;99.90;;;;;;4821483;29;20491;-52
2022/08/13 01:14:39;;;;;;;3.83;3.40;;;11.60;99.90;;;;;;4822876;29;20066;-50
2022/08/13 01:17:07;;;;;;;5.03;3.47;;;11.60;99.90;;;;;;4822889;29;20435;-51
2022/08/13 01:19:34;;;;;;;4.82;2.90;;;11.60;99.90;;;;;;4821466;29;20114;-51
2022/08/13 01:22:00;;;;;;;7.97;4.15;;;11.60;99.90;;;;;;4820868;29;20066;-51
2022/08/13 01:24:28;;;;;;;6.35;3.78;;;11.60;99.90;;;;;;4822764;29;20155;-50
2022/08/13 01:26:56;;;;;;;3.90;3.50;;;11.60;99.90;;;;;;4822159;29;20118;-53
2022/08/13 01:29:23;;;;;;;7.22;4.10;;;11.50;99.90;;;;;;4822619;29;20046;-51
2022/08/13 01:31:51;;;;;;;9.55;3.70;;;11.40;99.90;;;;;;4822837;29;20022;-50
2022/08/13 01:34:18;;;;;;;14.60;4.47;;;11.50;99.90;;;;;;4822558;29;20061;-50
2022/08/13 01:36:46;;;;;;;5.35;3.97;;;11.40;99.90;;;;;;4822675;29;20026;-50
2022/08/13 01:39:12;;;;;;;6.72;4.00;;;11.40;99.90;;;;;;4821220;29;20034;-50
2022/08/13 01:41:38;;;;;;;4.18;3.78;;;11.40;99.90;;;;;;4822145;29;20038;-52
2022/08/13 01:44:05;;;;;;;5.70;3.58;;;11.30;99.90;;;;;;4822506;29;20026;-50
2022/08/13 01:52:06;;;;;;;4.68;3.78;;;11.20;99.90;;;;;;4822077;29;20041;-50
2022/08/13 01:54:33;;;;;;;6.63;3.88;;;11.20;99.90;;;;;;4822426;29;20458;-50
2022/08/13 01:57:01;;;;;;;4.03;3.55;;;11.10;99.90;;;;;;4822416;29;20046;-51
2022/08/13 01:59:28;;;;;;;7.35;3.72;;;11.10;99.90;;;;;;4822451;29;20038;-51
2022/08/13 02:01:55;;;;;;;4.22;3.83;;;11.10;99.90;;;;;;4822272;29;20375;-49
2022/08/13 02:04:21;;;;;;;6.97;3.67;;;11.10;99.90;;;;;;4822100;29;20402;-49
2022/08/13 02:06:48;;;;;;;4.75;3.72;;;11.00;99.90;;;;;;4822366;29;20042;-50
2022/08/13 02:09:14;;;;;;;5.18;4.53;;;11.00;99.90;;;;;;4822234;29;20491;-49
2022/08/13 02:11:40;;;;;;;4.28;3.88;;;11.00;99.90;;;;;;4820936;29;20046;-50
2022/08/13 02:14:06;;;;;;;3.97;3.58;;;10.90;99.90;;;;;;4822019;29;20081;-50
2022/08/13 02:16:34;;;;;;;7.85;3.72;;;10.90;99.90;;;;;;4822098;29;20050;-49
2022/08/13 02:19:02;;;;;;;3.75;3.45;;;10.90;99.90;;;;;;4822039;29;20756;-51
2022/08/13 02:21:32;;;;;;;3.63;3.33;;;10.90;99.90;;;;;;4821801;29;20503;-51
2022/08/13 02:23:59;;;;;;;5.65;3.53;;;10.80;99.90;;;;;;4822031;29;20099;-52
2022/08/13 02:26:27;;;;;;;4.97;3.95;;;10.80;99.90;;;;;;4822234;29;20039;-51
2022/08/13 02:28:57;;;;;;;7.22;4.32;;;10.80;99.90;;;;;;4821955;29;20034;-50
2022/08/13 02:31:26;;;;;;;8.30;3.95;;;10.80;99.90;;;;;;4821082;29;20479;-50
2022/08/13 02:33:52;;;;;;;6.82;3.55;;;10.70;99.90;;;;;;4825203;29;20390;-51
2022/08/13 02:36:22;;;;;;;4.97;3.55;;;10.70;99.90;;;;;;4824599;29;20030;-50
2022/08/13 02:38:59;;;;;;;4.43;3.95;;;10.70;99.90;;;;;;4825207;29;20070;-52
2022/08/13 02:41:42;;;;;;;6.43;4.00;;;10.60;99.90;;;;;;4823893;29;20031;-50
2022/08/13 02:44:14;;;;;;;5.03;3.75;;;10.60;99.90;;;;;;4825092;29;20444;-50
2022/08/13 02:46:49;;;;;;;4.25;3.85;;;10.70;99.90;;;;;;4823933;29;20043;-50
2022/08/13 02:49:15;;;;;;;4.30;3.90;;;10.70;99.90;;;;;;4824839;29;20026;-51
2022/08/13 02:51:42;;;;;;;7.85;4.20;;;10.60;99.90;;;;;;4824757;29;20026;-49
2022/08/13 02:54:08;;;;;;;4.18;3.78;;;10.60;99.90;;;;;;4823617;29;20034;-52
2022/08/13 02:56:36;;;;;;;7.88;4.05;;;10.70;99.90;;;;;;4824875;29;20028;-52
2022/08/13 02:59:03;;;;;;;4.43;3.80;;;10.60;99.90;;;;;;4823453;29;20110;-51
2022/08/13 03:01:30;;;;;;;6.75;4.05;;;10.60;99.90;;;;;;4824937;29;20103;-50
2022/08/13 03:03:56;;;;;;;4.20;3.78;;;10.60;99.90;;;;;;4824742;29;20552;-52
2022/08/13 03:06:23;;;;;;;4.57;3.97;;;10.60;99.90;;;;;;4824444;29;20034;-50
2022/08/13 03:08:52;;;;;;;4.10;3.67;;;10.60;99.90;;;;;;4824803;29;20035;-52
2022/08/13 03:11:19;;;;;;;4.18;3.65;;;10.50;99.90;;;;;;4824488;29;20026;-50
2022/08/13 03:13:53;;;;;;;6.00;3.53;;;10.50;99.90;;;;;;4824469;29;20051;-49
2022/08/13 03:16:22;;;;;;;12.30;3.60;;;10.40;99.90;;;;;;4824539;29;20038;-50
2022/08/13 03:18:48;;;;;;;10.25;3.90;;;10.40;99.90;;;;;;4824615;29;20438;-53
2022/08/13 03:21:23;;;;;;;4.03;3.72;;;10.40;99.90;;;;;;4824105;29;20130;-50
2022/08/13 03:23:51;;;;;;;4.57;4.10;;;10.40;99.90;;;;;;4824502;29;20072;-50
2022/08/13 03:26:21;;;;;;;4.47;3.60;;;10.40;99.90;;;;;;4824451;29;20030;-51
2022/08/13 03:28:50;;;;;;;4.38;3.97;;;10.30;99.90;;;;;;4824380;29;20027;-51
2022/08/13 03:31:17;;;;;;;7.13;4.13;;;10.30;99.90;;;;;;4822947;29;20042;-51
2022/08/13 03:33:43;;;;;;;7.20;4.13;;;10.40;99.90;;;;;;4824156;29;20034;-52
2022/08/13 03:36:08;;;;;;;4.93;3.55;;;10.30;99.90;;;;;;4824156;29;20113;-51
2022/08/13 03:38:35;;;;;;;7.95;4.50;;;10.40;99.90;;;;;;4824384;29;20022;-52
2022/08/13 03:41:02;;;;;;;4.15;3.85;;;10.40;99.90;;;;;;4824042;29;20032;-51
2022/08/13 03:43:30;;;;;;;5.25;4.50;;;10.40;99.90;;;;;;4823632;29;20555;-51
2022/08/13 03:45:57;;;;;;;5.30;4.82;;;10.50;99.90;;;;;;4823884;29;20035;-51
2022/08/13 03:48:25;;;;;;;5.63;3.53;;;10.40;99.90;;;;;;4824013;29;20041;-50
2022/08/13 03:50:52;;;;;;;6.53;4.20;;;10.30;99.90;;;;;;4823633;29;20034;-50
2022/08/13 03:53:18;;;;;;;4.20;3.63;;;10.30;99.90;;;;;;4824023;29;20093;-51
2022/08/13 03:55:44;;;;;;;6.38;4.43;;;10.20;99.90;;;;;;4824013;29;20037;-51
2022/08/13 03:58:11;;;;;;;5.82;4.65;;;10.20;99.90;;;;;;4823886;29;20038;-51
2022/08/13 04:00:40;;;;;;;7.50;4.13;;;10.20;99.90;;;;;;4822608;29;20129;-49
2022/08/13 04:03:19;;;;;;;4.93;4.18;;;10.20;99.90;;;;;;4823762;29;20040;-50
2022/08/13 04:05:45;;;;;;;6.35;4.35;;;10.20;99.90;;;;;;4823708;29;20073;-51
2022/08/13 04:08:11;;;;;;;6.75;4.35;;;10.20;99.90;;;;;;4823632;29;20402;-50
2022/08/13 04:10:37;;;;;;;6.80;4.28;;;10.20;99.90;;;;;;4823765;29;20045;-50
2022/08/13 04:13:04;;;;;;;6.90;4.75;;;10.20;99.90;;;;;;4823411;29;20058;-51
2022/08/13 04:15:30;;;;;;;6.13;4.53;;;10.20;99.90;;;;;;4823873;29;20081;-50
2022/08/13 04:17:56;;;;;;;4.93;4.07;;;10.20;99.90;;;;;;4823391;29;20118;-50
2022/08/13 04:20:23;;;;;;;4.97;4.47;;;10.20;99.90;;;;;;4822585;29;20487;-51
2022/08/13 04:22:49;;;;;;;5.90;4.72;;;10.20;99.90;;;;;;4822777;29;20117;-51
2022/08/13 04:25:15;;;;;;;9.43;3.83;;;10.20;99.90;;;;;;4823421;29;20114;-51
2022/08/13 04:27:41;;;;;;;4.63;4.22;;;10.20;99.90;;;;;;4823433;29;20534;-50
2022/08/13 04:30:08;;;;;;;4.65;4.22;;;10.30;99.90;;;;;;4822120;29;20130;-51
2022/08/13 04:32:43;;;;;;;5.80;4.10;;;10.30;99.90;;;;;;4823763;29;20113;-50
2022/08/13 04:35:10;;;;;;;5.18;4.18;;;10.40;99.90;;;;;;4823103;29;20083;-50
2022/08/13 04:37:37;;;;;;;7.35;3.65;;;10.40;99.90;;;;;;4823486;29;20040;-51
2022/08/13 04:40:04;;;;;;;7.22;4.82;;;10.50;99.90;;;;;;4823254;29;20030;-54
2022/08/13 04:42:49;;;;;;;8.45;4.53;;;10.60;99.90;;;;;;4823336;29;20065;-51
2022/08/13 04:45:15;;;;;;;6.90;5.25;;;10.70;99.90;;;;;;4823229;29;20383;-51
2022/08/13 04:47:42;;;;;;;7.15;4.00;;;10.90;99.90;;;;;;4823142;29;20038;-50
2022/08/13 04:50:10;;;;;;;6.80;3.80;;;11.10;99.90;;;;;;4823040;29;20058;-50
2022/08/13 04:52:36;;;;;;;6.03;4.20;;;11.20;99.90;;;;;;4823064;29;20109;-48
2022/08/13 04:55:03;;;;;;;4.25;3.85;;;11.30;99.90;;;;;;4823076;29;20117;-52
2022/08/13 04:57:29;;;;;;;5.82;4.60;;;11.40;99.90;;;;;;4823089;29;20026;-52
2022/08/13 04:59:55;;;;;;;6.95;4.85;;;11.40;99.90;;;;;;4823099;29;20030;-51
2022/08/13 05:02:21;;;;;;;6.05;4.72;;;11.50;99.90;;;;;;4822819;29;20036;-49
2022/08/13 05:04:48;;;;;;;4.68;3.75;;;11.60;99.90;;;;;;4823024;29;20110;-51
2022/08/13 05:07:15;;;;;;;9.02;4.45;;;11.70;99.90;;;;;;4822922;29;20031;-50
2022/08/13 05:09:41;;;;;;;4.60;4.15;;;11.90;99.90;;;;;;4822940;29;20029;-50
2022/08/13 05:12:07;;;;;;;7.80;4.35;;;12.10;99.90;;;;;;4822817;29;20041;-51
2022/08/13 05:14:35;;;;;;;9.45;4.13;;;12.30;99.90;;;;;;4822663;29;20070;-50
2022/08/13 05:17:04;;;;;;;6.80;4.00;;;12.40;99.90;;;;;;4822803;29;20095;-53
2022/08/13 05:19:30;;;;;;;5.18;4.53;;;12.70;99.90;;;;;;4822684;29;20037;-54
2022/08/13 05:21:56;;;;;;;4.38;3.97;;;12.80;99.90;;;;;;4822793;29;20026;-50
2022/08/13 05:24:21;;;;;;;9.25;4.40;;;13.00;99.90;;;;;;4822813;29;20493;-52
2022/08/13 05:26:48;;;;;;;4.55;4.00;;;13.20;99.90;;;;;;4822792;29;20107;-50
2022/08/13 05:29:14;;;;;;;4.50;4.10;;;13.40;99.90;;;;;;4822369;29;20034;-50
2022/08/13 05:31:40;;;;;;;4.25;3.85;;;13.50;99.90;;;;;;4822632;29;20513;-51
2022/08/13 05:34:06;;;;;;;5.22;4.05;;;13.70;99.90;;;;;;4822670;29;20031;-51
2022/08/13 05:36:32;;;;;;;6.97;4.32;;;14.10;99.90;;;;;;4822547;29;20045;-50
2022/08/13 05:38:59;;;;;;;5.35;4.03;;;14.10;99.90;;;;;;4822633;29;20026;-50
2022/08/13 05:41:28;;;;;;;5.05;4.55;;;14.20;99.90;;;;;;4821461;29;20038;-51
2022/08/13 05:43:54;;;;;;;4.55;3.78;;;14.30;99.90;;;;;;4822360;29;20041;-53
2022/08/13 05:46:20;;;;;;;4.55;4.10;;;14.30;99.90;;;;;;4821116;29;20041;-51
2022/08/13 05:48:58;;;;;;;4.45;4.05;;;14.40;99.90;;;;;;4822475;29;20030;-50
2022/08/13 05:51:28;;;;;;;4.05;3.53;;;14.50;99.90;;;;;;4822378;29;20371;-51
2022/08/13 05:53:55;;;;;;;6.47;4.40;;;14.60;99.90;;;;;;4822636;29;20495;-52
2022/08/13 05:56:24;;;;;;;4.95;3.85;;;14.80;99.90;;;;;;4822458;29;20060;-51
2022/08/13 05:58:51;;;;;;;4.68;3.67;;;14.90;99.90;;;;;;4822346;29;20036;-52
2022/08/13 06:04:19;;;;;;;3.85;3.50;;;15.30;99.90;;;;;;4822532;29;20464;-51
2022/08/13 06:06:48;;;;;;;9.40;4.25;;;15.40;99.90;;;;;;4822892;29;20471;-52
2022/08/13 06:09:14;;;;;;;5.28;3.95;;;15.50;99.90;;;;;;4824226;29;20042;-53
2022/08/13 06:11:43;;;;;;;3.97;3.58;;;15.50;99.90;;;;;;4824490;29;20036;-54
2022/08/13 06:14:16;;;;;;;5.20;4.38;;;15.60;99.90;;;;;;4825239;29;20058;-52
2022/08/13 06:16:44;;;;;;;8.23;3.65;;;15.70;99.90;;;;;;4825100;29;20669;-50
2022/08/13 06:19:14;;;;;;;4.63;3.95;;;15.80;99.90;;;;;;4824862;29;20050;-50
2022/08/13 06:21:41;;;;;;;6.18;3.88;;;15.90;99.90;;;;;;4825481;29;20041;-53
2022/08/13 06:24:08;;;;;;;4.40;4.00;;;16.00;99.90;;;;;;4825270;29;20383;-53
2022/08/13 06:26:34;;;;;;;4.72;4.25;;;16.20;99.90;;;;;;4824640;29;20030;-52
2022/08/13 06:29:01;;;;;;;6.50;3.17;;;16.40;99.90;;;;;;4825007;29;20085;-50
2022/08/13 06:31:30;;;;;;;3.88;3.42;;;16.50;99.90;;;;;;4806378;29;20023;-51
2022/08/13 06:33:56;;;;;;;3.40;3.10;;;16.70;99.90;;;;;;4805868;29;20023;-55
2022/08/13 06:36:25;;;;;;;4.10;3.40;;;16.80;99.90;;;;;;4805886;29;20053;-52
2022/08/13 06:38:53;;;;;;;4.00;3.13;;;16.90;99.90;;;;;;4805677;29;20510;-52
2022/08/13 06:41:21;;;;;;;3.35;2.97;;;17.00;99.90;;;;;;4805838;29;20031;-51
2022/08/13 06:43:51;;;;;;;7.07;3.40;;;17.10;99.90;;;;;;4805820;29;20042;-53
2022/08/13 06:46:20;;;;;;;3.70;2.95;;;17.20;99.90;;;;;;4806155;29;20034;-52
2022/08/13 06:48:46;;;;;;;5.88;3.15;;;17.20;99.90;;;;;;4806991;29;20433;-52
2022/08/13 06:51:13;;;;;;;3.58;3.28;;;17.30;99.90;;;;;;4806851;29;20119;-53
2022/08/13 06:53:41;;;;;;;3.13;2.83;;;17.40;99.90;;;;;;4806564;29;20690;-51
2022/08/13 06:56:12;;;;;;;4.97;2.95;;;17.50;99.90;;;;;;4806690;29;20030;-51
2022/08/13 06:58:42;;;;;;;4.32;2.95;;;17.50;99.90;;;;;;4806705;29;20035;-53
2022/08/13 07:01:09;;;;;;;3.50;2.88;;;17.50;99.90;;;;;;4806649;29;20071;-53
2022/08/13 07:03:38;;;;;;;3.95;2.75;;;17.60;99.90;;;;;;4806789;29;20061;-51
2022/08/13 07:06:04;;;;;;;3.38;3.08;;;17.70;99.90;;;;;;4810300;29;20023;-52
2022/08/13 07:08:30;;;;;;;3.38;3.00;;;17.80;99.90;;;;;;4824582;29;20539;-50
2022/08/13 07:13:44;;;;;;;3.88;3.13;;;18.00;99.90;;;;;;4824629;29;20061;-50
2022/08/13 07:16:12;;;;;;;6.00;2.85;;;18.20;99.90;;;;;;4824507;29;20030;-54
2022/08/13 07:18:39;;;;;;;3.17;2.70;;;18.30;99.90;;;;;;4822898;29;20062;-53
2022/08/13 07:21:09;;;;;;;6.10;2.88;;;18.40;99.90;;;;;;4824225;29;20038;-51
2022/08/13 07:23:39;;;;;;;5.15;2.85;;;18.40;99.90;;;;;;4824334;29;20038;-51
2022/08/13 07:26:07;;;;;;;23.60;3.45;;;18.70;99.90;;;;;;4824423;29;20117;-51
2022/08/13 07:28:33;;;;;;;3.25;2.92;;;18.80;99.90;;;;;;4824390;29;20035;-53
2022/08/13 07:31:00;;;;;;;4.78;2.90;;;19.00;99.90;;;;;;4824014;29;20038;-50
2022/08/13 07:33:26;;;;;;;6.03;2.67;;;19.10;99.90;;;;;;4824180;29;20031;-51
2022/08/13 07:35:53;;;;;;;2.88;2.22;;;19.30;99.90;;;;;;4824390;29;20685;-50
2022/08/13 07:38:19;;;;;;;9.73;3.42;;;19.50;99.90;;;;;;4824033;29;20042;-52
2022/08/13 07:40:50;;;;;;;8.77;2.55;;;19.60;98.30;;;;;;4824183;29;20042;-50
2022/08/13 07:43:21;;;;;;;4.30;2.47;;;19.60;98.10;;;;;;4823661;29;20081;-52
2022/08/13 07:46:10;;;;;;;3.10;2.80;;;19.70;98.00;;;;;;4823793;29;20038;-50
2022/08/13 07:48:39;;;;;;;2.70;2.50;;;19.90;98.00;;;;;;4823972;29;20034;-50
2022/08/13 07:51:19;;;;;;;10.40;2.72;;;20.00;97.40;;;;;;4823915;29;20062;-51
2022/08/13 07:53:53;;;;;;;3.63;2.20;;;20.10;98.20;;;;;;4823810;29;20574;-54
2022/08/13 07:56:32;;;;;;;6.15;2.47;;;20.10;97.20;;;;;;4823910;29;20022;-53
2022/08/13 07:59:19;;;;;;;23.65;3.63;;;20.10;97.50;;;;;;4823690;29;20038;-53
2022/08/13 08:01:51;;;;;;;3.28;2.67;;;20.30;97.40;;;;;;4823602;29;20035;-53
2022/08/13 08:04:19;;;;;;;4.65;2.90;;;20.60;97.40;;;;;;4821815;29;20054;-51
2022/08/13 08:06:48;;;;;;;12.90;3.88;;;20.60;97.00;;;;;;4805192;29;20066;-51
2022/08/13 08:09:18;;;;;;;5.68;3.65;;;20.60;96.60;;;;;;4820256;29;20094;-53
2022/08/13 08:14:30;;;;;;;6.43;3.63;;;20.80;97.50;;;;;;4823026;29;20079;-52
2022/08/13 08:16:57;;;;;;;6.30;3.33;;;20.80;97.10;;;;;;4822842;29;20035;-54
2022/08/13 08:19:23;;;;;;;9.50;5.13;;;20.90;95.60;;;;;;4823208;29;20027;-53
2022/08/13 08:21:49;;;;;;;7.85;4.47;;;21.00;95.80;;;;;;4822896;29;20151;-52
2022/08/13 08:24:16;;;;;;;7.72;4.60;;;21.10;96.00;;;;;;4823104;29;20041;-53
2022/08/13 08:26:46;;;;;;;8.32;3.80;;;21.10;96.30;;;;;;4823131;29;20040;-51
2022/08/13 08:29:13;;;;;;;7.45;3.00;;;21.10;95.80;;;;;;4822115;29;20055;-54
2022/08/13 08:31:40;;;;;;;5.13;3.15;;;21.00;95.80;;;;;;4822063;29;20062;-55
2022/08/13 08:34:07;;;;;;;3.92;3.40;;;21.10;96.20;;;;;;4820488;29;20019;-53
2022/08/13 08:36:38;;;;;;;9.30;3.70;;;21.00;95.30;;;;;;4820536;29;20034;-51
2022/08/13 08:44:37;;;;;;;5.72;3.35;;;21.50;95.60;;;;;;4816579;29;20045;-50
2022/08/13 08:47:03;;;;;;;6.07;4.30;;;21.90;96.20;;;;;;4816285;29;20030;-50
2022/08/13 08:49:30;;;;;;;12.25;4.80;;;22.20;95.10;;;;;;4816876;29;20458;-49
2022/08/13 08:51:57;;;;;;;8.30;3.53;;;22.40;95.40;;;;;;4807838;29;20125;-53
2022/08/13 08:54:25;;;;;;;7.20;4.03;;;22.50;94.10;;;;;;4819566;29;20126;-52
2022/08/13 08:56:55;;;;;;;6.38;3.40;;;22.60;94.10;;;;;;4814753;29;20114;-54
2022/08/13 08:59:24;;;;;;;7.80;4.10;;;22.70;93.20;;;;;;4812573;29;20103;-52
2022/08/13 09:01:55;;;;;;;4.00;3.60;;;22.70;93.30;;;;;;4819948;29;20042;-52
2022/08/13 09:04:22;;;;;;;4.43;3.55;;;22.60;92.60;;;;;;4822866;29;20041;-53
2022/08/13 09:06:52;;;;;;;5.20;3.20;;;23.00;93.20;;;;;;4822658;29;20403;-51
2022/08/13 09:09:19;;;;;;;7.03;3.58;;;22.90;92.30;;;;;;4822558;29;20728;-51
2022/08/13 09:11:46;;;;;;;6.72;3.40;;;23.10;92.00;;;;;;4822684;29;20027;-51
2022/08/13 09:14:13;;;;;;;5.82;3.85;;;23.20;92.80;;;;;;4821556;29;20046;-50
2022/08/13 09:16:39;;;;;;;4.32;3.40;;;23.20;92.70;;;;;;4822360;29;20026;-52
2022/08/13 09:19:13;;;;;;;4.50;3.70;;;23.10;91.80;;;;;;4822299;29;20045;-51
2022/08/13 09:21:45;;;;;;;;;;;23.00;92.10;;;;;;4822869;29;20034;-50
2022/08/13 09:24:14;;;;;;;4.88;3.67;;;23.00;91.90;;;;;;4818981;29;19925;-51
2022/08/13 09:26:47;;;;;;;4.05;3.35;;;23.00;92.50;;;;;;4804740;29;20088;-55
2022/08/13 09:29:18;;;;;;;6.15;2.85;;;22.80;92.90;;;;;;4811171;29;20095;-53
2022/08/13 09:31:50;;;;;;;5.75;4.03;;;23.20;91.90;;;;;;4808739;29;20027;-49
2022/08/13 09:34:17;;;;;;;8.07;3.92;;;23.40;91.90;;;;;;4808101;29;20105;-50
2022/08/13 09:36:44;;;;;;;7.00;3.25;;;23.40;91.50;;;;;;4804948;29;20464;-53
2022/08/13 09:39:24;;;;;;;4.93;3.30;;;23.40;92.40;;;;;;4802667;29;20638;-53
2022/08/13 09:41:50;;;;;;;5.82;3.65;;;24.00;91.90;;;;;;4806189;29;20039;-54
2022/08/13 09:44:17;;;;;;;5.63;2.70;;;24.00;91.10;;;;;;4807736;29;20131;-53
2022/08/13 09:46:43;;;;;;;7.80;3.50;;;24.00;90.70;;;;;;4808090;29;20468;-52
2022/08/13 09:49:11;;;;;;;4.72;3.28;;;23.90;90.40;;;;;;4807895;29;20039;-53
2022/08/13 09:51:37;;;;;;;7.10;3.58;;;24.20;91.20;;;;;;4808044;29;20035;-51
2022/08/13 09:54:11;;;;;;;7.57;3.28;;;24.30;90.50;;;;;;4807749;29;20035;-50
2022/08/13 09:56:37;;;;;;;7.07;3.35;;;24.50;89.80;;;;;;4808145;29;20117;-51
2022/08/13 09:59:10;;;;;;;5.47;3.20;;;25.10;89.10;;;;;;4811258;29;20058;-51
2022/08/13 10:01:37;;;;;;;5.43;3.30;;;25.50;88.30;;;;;;4823746;29;20418;-54
2022/08/13 10:04:04;;;;;;;6.55;3.67;;;25.90;85.70;;;;;;4824996;29;20030;-53
2022/08/13 10:06:31;;;;;;;4.68;3.92;;;25.80;87.70;;;;;;4825423;29;20037;-52
2022/08/13 10:09:00;;;;;;;7.38;3.40;;;25.90;86.70;;;;;;4825099;29;20037;-52
2022/08/13 10:11:27;;;;;;;7.55;3.63;;;26.40;84.00;;;;;;4825808;29;20030;-51
2022/08/13 10:13:54;;;;;;;12.02;3.65;;;25.90;83.10;;;;;;4825360;29;20042;-49
2022/08/13 10:16:20;;;;;;;11.25;3.40;;;25.60;84.60;;;;;;4825387;29;20078;-52
2022/08/13 10:18:46;;;;;;;9.80;3.95;;;26.30;84.00;;;;;;4825593;29;20091;-50
2022/08/13 10:21:12;;;;;;;5.63;3.40;;;26.30;82.60;;;;;;4825204;29;20026;-51
2022/08/13 10:23:38;;;;;;;8.75;2.80;;;26.40;81.80;;;;;;4825572;29;20033;-50
2022/08/13 10:26:05;;;;;;;4.93;2.72;;;26.80;82.20;;;;;;4825229;29;20392;-53
2022/08/13 10:28:34;;;;;;;5.25;2.58;;;26.90;81.20;;;;;;4812590;29;20053;-56
2022/08/13 10:31:07;;;;;;;4.05;2.70;;;26.90;78.80;;;;;;4812503;29;20088;-56
2022/08/13 10:33:34;;;;;;;4.60;3.20;;;26.60;79.50;;;;;;4815094;29;20026;-52
2022/08/13 10:36:00;;;;;;;5.28;3.70;;;26.60;78.60;;;;;;4797780;29;20739;-54
2022/08/13 10:38:26;;;;;;;7.80;2.90;;;26.30;79.00;;;;;;4797542;29;20062;-52
2022/08/13 10:40:54;;;;;;;3.28;2.97;;;26.20;77.30;;;;;;4796498;29;20031;-51
2022/08/13 10:43:23;;;;;;;5.85;3.13;;;26.50;78.80;;;;;;4798228;29;20072;-54
2022/08/13 10:45:50;;;;;;;3.28;2.75;;;26.80;76.10;;;;;;4797060;29;20061;-53
2022/08/13 10:48:17;;;;;;;3.90;3.40;;;27.00;76.60;;;;;;4802508;29;20046;-53
2022/08/13 10:50:43;;;;;;;8.50;3.55;;;26.90;75.60;;;;;;4795555;29;20070;-52
2022/08/13 10:53:55;;;;;;;6.15;3.35;;;27.40;75.80;;;;;;4797293;29;20050;-51
2022/08/13 10:55:55;;;;;;;3.35;3.05;;;27.30;74.90;;;;;;4806910;29;20035;-55
2022/08/13 10:58:21;;;;;;;5.35;3.20;;;27.50;77.60;;;;;;4795535;29;20650;-53
2022/08/13 11:00:46;;;;;;;3.17;2.90;;;27.50;76.40;;;;;;4811162;29;20043;-52
2022/08/13 11:03:16;;;;;;;6.18;3.78;;;27.80;75.50;;;;;;4813797;29;20054;-54
2022/08/13 11:05:41;;;;;;;4.35;3.58;;;27.20;72.30;;;;;;4814066;29;20053;-54
2022/08/13 11:08:12;;;;;;;3.53;3.17;;;27.40;74.00;;;;;;4798434;29;20035;-52
2022/08/13 11:10:38;;;;;;;7.63;3.40;;;28.00;73.90;;;;;;4813957;29;20168;-51
2022/08/13 11:13:05;;;;;;;4.30;2.88;;;27.50;73.50;;;;;;4813638;29;20507;-54
2022/08/13 11:15:32;;;;;;;6.95;3.30;;;27.50;71.50;;;;;;4812179;29;20030;-52
2022/08/13 11:17:59;;;;;;;4.38;3.15;;;27.60;72.20;;;;;;4794778;29;20068;-52
2022/08/13 11:20:27;;;;;;;5.80;3.38;;;27.40;71.50;;;;;;4795239;29;20134;-52
2022/08/13 11:22:54;;;;;;;4.05;3.30;;;27.60;71.10;;;;;;4795296;29;20031;-55
2022/08/13 11:25:21;;;;;;;6.22;3.90;;;28.00;72.10;;;;;;4809300;29;20495;-53
2022/08/13 11:27:47;;;;;;;5.35;3.33;;;28.10;70.00;;;;;;4812781;29;20050;-52
2022/08/13 11:30:14;;;;;;;7.00;3.15;;;28.30;71.80;;;;;;4813054;29;20079;-53
2022/08/13 11:32:40;;;;;;;4.95;3.35;;;28.50;70.60;;;;;;4794485;29;20039;-51
2022/08/13 11:35:07;;;;;;;5.05;2.92;;;28.80;67.80;;;;;;4795777;29;20043;-55
2022/08/13 11:37:34;;;;;;;3.38;3.08;;;28.80;69.50;;;;;;4796608;29;20046;-52
2022/08/13 11:40:00;;;;;;;3.70;3.05;;;29.10;65.90;;;;;;4795321;29;20042;-52
2022/08/13 11:42:26;;;;;;;3.33;3.03;;;29.10;65.00;;;;;;4812640;29;20111;-52
2022/08/13 11:44:51;;;;;;;6.28;4.03;;;29.10;65.30;;;;;;4813202;29;20452;-56
2022/08/13 11:47:17;;;;;;;4.43;2.80;;;29.30;66.00;;;;;;4801675;29;20026;-53
2022/08/13 11:49:43;;;;;;;8.55;2.85;;;29.50;66.90;;;;;;4796933;29;20039;-54
2022/08/13 11:52:09;;;;;;;5.28;2.65;;;29.80;63.00;;;;;;4795239;29;20079;-54
2022/08/13 11:54:34;;;;;;;5.55;2.80;;;30.30;61.00;;;;;;4796278;29;20122;-51
2022/08/13 11:57:02;;;;;;;8.45;3.50;;;31.10;60.40;;;;;;4795622;29;20058;-55
2022/08/13 11:59:27;;;;;;;9.38;3.38;;;31.80;60.60;;;;;;4798535;29;20432;-54
2022/08/13 12:01:54;;;;;;;6.82;2.90;;;31.20;60.00;;;;;;4794679;29;20041;-56
2022/08/13 12:04:20;;;;;;;8.98;3.05;;;31.20;58.80;;;;;;4795259;29;20468;-56
2022/08/13 12:06:45;;;;;;;4.68;2.90;;;31.60;56.60;;;;;;4797008;29;20041;-54
2022/08/13 12:09:11;;;;;;;3.42;2.85;;;31.60;57.40;;;;;;4798631;29;20173;-56
2022/08/13 12:11:37;;;;;;;4.05;3.15;;;32.20;56.60;;;;;;4795049;29;20039;-55
2022/08/13 12:14:02;;;;;;;4.00;2.97;;;32.60;57.30;;;;;;4794444;29;20054;-54
2022/08/13 12:16:29;;;;;;;3.85;2.53;;;32.80;54.20;;;;;;4795746;29;20211;-55
2022/08/13 12:18:55;;;;;;;9.07;2.58;;;33.10;55.20;;;;;;4795389;29;20030;-54
2022/08/13 12:21:21;;;;;;;5.82;2.30;;;33.50;54.80;;;;;;4796463;29;20038;-55
2022/08/13 12:23:47;;;;;;;2.20;2.00;;;33.40;52.20;;;;;;4799659;29;20033;-55
2022/08/13 12:26:12;;;;;;;6.45;2.33;;;32.90;52.30;;;;;;4805044;29;20034;-54
2022/08/13 12:28:38;;;;;;;3.50;1.88;;;33.10;51.80;;;;;;4805410;29;20051;-55
2022/08/13 12:31:07;;;;;;;8.68;2.30;;;33.10;50.50;;;;;;4805132;29;20031;-55
2022/08/13 12:33:34;;;;;;;2.60;2.40;;;32.70;50.20;;;;;;4805386;29;20191;-55
2022/08/13 12:36:00;;;;;;;4.25;2.35;;;33.20;49.70;;;;;;4805246;29;20037;-56
2022/08/13 12:38:27;;;;;;;5.35;2.05;;;33.50;49.60;;;;;;4805331;29;20034;-56
2022/08/13 12:40:52;;;;;;;5.22;2.47;;;33.20;52.20;;;;;;4805134;29;20030;-55
2022/08/13 12:43:18;;;;;;;6.35;2.20;;;33.40;49.30;;;;;;4804960;29;20425;-53
2022/08/13 12:45:45;;;;;;;3.88;1.80;;;33.10;48.90;;;;;;4806374;29;20054;-54
2022/08/13 12:48:16;;;;;;;2.58;2.10;;;34.00;47.40;;;;;;4804968;29;20521;-55
2022/08/13 12:50:44;;;;;;;3.17;1.70;;;34.10;47.20;;;;;;4805025;29;20025;-52
2022/08/13 12:53:10;;;;;;;2.20;1.70;;;33.50;45.90;;;;;;4804783;29;20110;-57
2022/08/13 12:55:38;;;;;;;1.85;1.75;;;34.30;49.40;;;;;;4805026;29;20379;-55
2022/08/13 12:58:12;;;;;;;5.70;1.88;;;34.30;44.50;;;;;;4804635;29;20033;-56
2022/08/13 13:00:38;;;;;;;5.15;1.75;;;34.00;44.10;;;;;;4807266;29;20379;-53
2022/08/13 13:03:03;;;;;;;3.25;1.83;;;34.50;46.90;;;;;;4823031;29;20042;-53
2022/08/13 13:05:30;;;;;;;1.70;1.48;;;34.30;45.40;;;;;;4823139;29;20394;-57
2022/08/13 13:07:56;;;;;;;6.53;2.05;;;33.90;46.00;;;;;;4821669;29;20042;-56
2022/08/13 13:10:21;;;;;;;3.20;2.00;;;34.40;46.10;;;;;;4822589;29;20387;-55
2022/08/13 13:12:47;;;;;;;5.07;1.73;;;34.50;44.90;;;;;;4822234;29;20554;-53
2022/08/13 13:15:13;;;;;;;4.95;2.15;;;34.60;44.20;;;;;;4822513;29;20025;-55